createdAt,value
2023-05-06T00:00:50.014Z,76.90
2023-05-06T00:01:49.991Z,76.70
2023-05-06T00:02:50.067Z,76.60
2023-05-06T00:03:50.060Z,76.80
2023-05-06T00:04:50.084Z,77.11
2023-05-06T00:05:50.103Z,76.80
2023-05-06T00:06:49.927Z,76.80
2023-05-06T00:07:49.942Z,76.80
2023-05-06T00:08:49.921Z,77.01
2023-05-06T00:09:50.065Z,77.04
2023-05-06T00:10:49.929Z,76.94
2023-05-06T00:11:49.937Z,77.14
2023-05-06T00:12:49.884Z,76.94
2023-05-06T00:13:49.871Z,77.04
2023-05-06T00:14:49.866Z,77.14
2023-05-06T00:15:49.822Z,76.64
2023-05-06T00:16:49.854Z,76.54
2023-05-06T00:17:49.874Z,76.84
2023-05-06T00:18:49.877Z,76.70
2023-05-06T00:19:49.840Z,76.70
2023-05-06T00:20:49.777Z,77.04
2023-05-06T00:21:49.860Z,77.14
2023-05-06T00:22:49.780Z,77.11
2023-05-06T00:23:49.765Z,76.20
2023-05-06T00:24:49.800Z,76.09
2023-05-06T00:25:49.734Z,75.79
2023-05-06T00:26:49.744Z,75.79
2023-05-06T00:27:49.715Z,76.70
2023-05-06T00:28:49.744Z,76.74
2023-05-06T00:29:50.260Z,76.40
2023-05-06T00:30:49.696Z,76.43
2023-05-06T00:31:49.701Z,76.54
2023-05-06T00:32:49.750Z,76.54
2023-05-06T00:33:49.714Z,76.23
2023-05-06T00:34:49.664Z,76.33
2023-05-06T00:35:49.645Z,76.54
2023-05-06T00:36:49.632Z,76.64
2023-05-06T00:37:49.615Z,76.23
2023-05-06T00:38:49.605Z,76.54
2023-05-06T00:39:49.617Z,76.94
2023-05-06T00:40:49.626Z,76.84
2023-05-06T00:41:49.590Z,76.43
2023-05-06T00:42:49.581Z,76.64
2023-05-06T00:43:49.571Z,76.43
2023-05-06T00:44:49.575Z,76.74
2023-05-06T00:45:49.554Z,76.74
2023-05-06T00:46:49.558Z,76.54
2023-05-06T00:47:49.603Z,76.23
2023-05-06T00:48:49.500Z,76.13
2023-05-06T00:49:49.495Z,76.33
2023-05-06T00:50:49.487Z,76.23
2023-05-06T00:51:49.478Z,76.13
2023-05-06T00:52:49.482Z,76.13
2023-05-06T00:53:49.486Z,76.23
2023-05-06T00:54:49.442Z,75.93
2023-05-06T00:55:49.511Z,76.03
2023-05-06T00:56:49.475Z,76.13
2023-05-06T00:57:49.440Z,76.43
2023-05-06T00:58:49.406Z,76.09
2023-05-06T00:59:49.420Z,75.89
2023-05-06T01:00:49.454Z,75.79
2023-05-06T01:01:49.449Z,75.99
2023-05-06T01:02:50.178Z,76.09
2023-05-06T01:03:49.510Z,75.79
2023-05-06T01:04:49.370Z,75.69
2023-05-06T01:05:49.418Z,76.29
2023-05-06T01:06:49.725Z,76.40
2023-05-06T01:07:49.333Z,76.40
2023-05-06T01:08:50.082Z,76.40
2023-05-06T01:09:49.306Z,75.69
2023-05-06T01:10:49.296Z,75.79
2023-05-06T01:11:49.303Z,75.99
2023-05-06T01:12:49.420Z,75.28
2023-05-06T01:13:49.307Z,75.82
2023-05-06T01:14:49.264Z,76.54
2023-05-06T01:15:49.237Z,76.54
2023-05-06T01:16:49.371Z,76.27
2023-05-06T01:17:49.283Z,76.67
2023-05-06T01:18:49.221Z,77.79
2023-05-06T01:19:49.215Z,77.08
2023-05-06T01:20:49.172Z,77.28
2023-05-06T01:21:49.217Z,77.48
2023-05-06T01:22:49.186Z,77.08
2023-05-06T01:23:49.169Z,77.52
2023-05-06T01:24:49.198Z,77.93
2023-05-06T01:25:49.153Z,78.03
2023-05-06T01:26:49.166Z,77.62
2023-05-06T01:27:49.152Z,77.52
2023-05-06T01:28:49.167Z,77.52
2023-05-06T01:29:49.084Z,79.04
2023-05-06T01:30:49.157Z,78.44
2023-05-06T01:31:49.132Z,78.03
2023-05-06T01:32:49.117Z,77.83
2023-05-06T01:33:49.064Z,77.86
2023-05-06T01:34:49.095Z,78.67
2023-05-06T01:35:49.333Z,78.47
2023-05-06T01:36:49.111Z,78.57
2023-05-06T01:37:49.017Z,78.98
2023-05-06T01:38:48.997Z,78.67
2023-05-06T01:39:49.108Z,79.18
2023-05-06T01:40:48.977Z,79.69
2023-05-06T01:41:49.032Z,78.98
2023-05-06T01:42:48.956Z,78.37
2023-05-06T01:43:48.947Z,78.13
2023-05-06T01:44:48.957Z,78.27
2023-05-06T01:45:48.927Z,78.47
2023-05-06T01:46:48.969Z,79.08
2023-05-06T01:47:48.981Z,78.67
2023-05-06T01:48:48.953Z,78.17
2023-05-06T01:49:48.879Z,78.67
2023-05-06T01:50:48.981Z,78.81
2023-05-06T01:51:48.947Z,79.42
2023-05-06T01:52:48.848Z,79.52
2023-05-06T01:53:48.858Z,79.72
2023-05-06T01:54:48.879Z,79.38
2023-05-06T01:55:48.876Z,78.67
2023-05-06T01:56:48.828Z,78.78
2023-05-06T01:57:48.821Z,78.71
2023-05-06T01:58:48.787Z,79.02
2023-05-06T01:59:48.798Z,79.32
2023-05-06T02:00:48.807Z,79.72
2023-05-06T02:01:48.896Z,79.46
2023-05-06T02:02:48.878Z,80.07
2023-05-06T02:03:48.902Z,80.58
2023-05-06T02:04:48.741Z,80.68
2023-05-06T02:05:48.760Z,79.97
2023-05-06T02:06:48.740Z,79.86
2023-05-06T02:07:48.728Z,80.37
2023-05-06T02:08:48.717Z,80.88
2023-05-06T02:09:48.712Z,80.27
2023-05-06T02:10:48.726Z,80.27
2023-05-06T02:11:48.683Z,79.97
2023-05-06T02:12:48.686Z,80.58
2023-05-06T02:13:48.705Z,79.86
2023-05-06T02:14:48.654Z,80.68
2023-05-06T02:15:48.707Z,79.72
2023-05-06T02:16:48.668Z,79.32
2023-05-06T02:17:48.628Z,79.16
2023-05-06T02:18:48.658Z,79.36
2023-05-06T02:19:48.601Z,80.07
2023-05-06T02:20:48.605Z,80.07
2023-05-06T02:21:48.585Z,79.66
2023-05-06T02:22:48.596Z,80.37
2023-05-06T02:23:48.549Z,80.17
2023-05-06T02:24:48.549Z,79.56
2023-05-06T02:25:48.521Z,79.56
2023-05-06T02:26:48.500Z,79.36
2023-05-06T02:27:48.528Z,79.46
2023-05-06T02:28:48.541Z,79.86
2023-05-06T02:29:48.507Z,79.86
2023-05-06T02:30:48.491Z,80.17
2023-05-06T02:31:48.485Z,80.07
2023-05-06T02:32:48.491Z,80.37
2023-05-06T02:33:48.476Z,80.47
2023-05-06T02:34:48.479Z,80.21
2023-05-06T02:35:48.423Z,80.41
2023-05-06T02:36:48.560Z,80.72
2023-05-06T02:37:48.397Z,80.82
2023-05-06T02:38:48.428Z,81.02
2023-05-06T02:39:48.398Z,80.82
2023-05-06T02:40:48.368Z,80.72
2023-05-06T02:41:48.408Z,80.82
2023-05-06T02:42:48.415Z,80.92
2023-05-06T02:43:48.372Z,81.02
2023-05-06T02:44:48.342Z,80.92
2023-05-06T02:45:48.353Z,81.53
2023-05-06T02:46:48.317Z,81.12
2023-05-06T02:47:48.332Z,81.93
2023-05-06T02:48:48.316Z,81.23
2023-05-06T02:49:48.290Z,81.33
2023-05-06T02:50:48.321Z,81.33
2023-05-06T02:51:48.326Z,81.23
2023-05-06T02:52:48.294Z,81.02
2023-05-06T02:53:48.308Z,80.68
2023-05-06T02:54:48.265Z,80.68
2023-05-06T02:55:48.294Z,80.47
2023-05-06T02:56:48.213Z,80.11
2023-05-06T02:57:48.230Z,80.31
2023-05-06T02:58:48.190Z,80.82
2023-05-06T02:59:48.222Z,81.23
2023-05-06T03:00:48.314Z,81.73
2023-05-06T03:01:48.154Z,81.43
2023-05-06T03:02:48.139Z,81.02
2023-05-06T03:03:48.171Z,81.43
2023-05-06T03:04:48.138Z,81.12
2023-05-06T03:05:48.176Z,80.72
2023-05-06T03:06:48.112Z,80.92
2023-05-06T03:07:48.096Z,81.23
2023-05-06T03:08:48.115Z,81.53
2023-05-06T03:09:48.132Z,81.93
2023-05-06T03:10:48.055Z,82.24
2023-05-06T03:11:48.610Z,81.84
2023-05-06T03:12:48.116Z,81.73
2023-05-06T03:13:48.047Z,81.43
2023-05-06T03:14:48.030Z,81.84
2023-05-06T03:15:48.100Z,81.43
2023-05-06T03:16:48.018Z,81.93
2023-05-06T03:17:48.116Z,82.28
2023-05-06T03:18:48.004Z,82.07
2023-05-06T03:19:48.031Z,82.48
2023-05-06T03:20:47.990Z,82.68
2023-05-06T03:21:48.018Z,82.14
2023-05-06T03:22:47.916Z,82.34
2023-05-06T03:23:47.882Z,82.14
2023-05-06T03:24:47.913Z,82.38
2023-05-06T03:25:47.858Z,82.28
2023-05-06T03:26:47.859Z,82.48
2023-05-06T03:27:47.856Z,82.28
2023-05-06T03:28:47.851Z,82.28
2023-05-06T03:29:47.832Z,82.95
2023-05-06T03:30:47.835Z,81.93
2023-05-06T03:31:47.819Z,82.34
2023-05-06T03:32:47.901Z,82.24
2023-05-06T03:33:47.894Z,82.54
2023-05-06T03:34:47.788Z,82.38
2023-05-06T03:35:47.778Z,82.59
2023-05-06T03:36:47.738Z,82.38
2023-05-06T03:37:47.779Z,82.99
2023-05-06T03:38:47.745Z,83.74
2023-05-06T03:39:47.773Z,84.15
2023-05-06T03:40:47.733Z,84.76
2023-05-06T03:41:47.696Z,84.05
2023-05-06T03:42:47.783Z,84.15
2023-05-06T03:43:47.690Z,83.54
2023-05-06T03:44:47.689Z,84.45
2023-05-06T03:45:47.684Z,84.25
2023-05-06T03:46:47.673Z,84.15
2023-05-06T03:47:48.342Z,83.84
2023-05-06T03:48:47.642Z,84.15
2023-05-06T03:49:47.657Z,84.90
2023-05-06T03:50:47.607Z,85.82
2023-05-06T03:51:47.608Z,86.33
2023-05-06T03:52:47.603Z,85.41
2023-05-06T03:53:47.623Z,85.11
2023-05-06T03:54:47.553Z,85.51
2023-05-06T03:55:47.617Z,86.16
2023-05-06T03:56:47.554Z,86.83
2023-05-06T03:57:47.577Z,86.88
2023-05-06T03:58:47.577Z,86.68
2023-05-06T03:59:47.533Z,87.29
2023-05-06T04:00:47.515Z,87.04
2023-05-06T04:01:47.574Z,86.53
2023-05-06T04:02:47.598Z,86.57
2023-05-06T04:03:47.541Z,86.94
2023-05-06T04:04:47.465Z,86.77
2023-05-06T04:05:47.493Z,87.24
2023-05-06T04:06:47.441Z,87.04
2023-05-06T04:07:47.464Z,86.53
2023-05-06T04:08:47.506Z,86.13
2023-05-06T04:09:47.475Z,86.22
2023-05-06T04:10:47.404Z,86.43
2023-05-06T04:11:47.447Z,85.92
2023-05-06T04:12:47.433Z,86.43
2023-05-06T04:13:47.650Z,85.82
2023-05-06T04:14:47.439Z,86.33
2023-05-06T04:15:47.398Z,85.92
2023-05-06T04:16:47.375Z,85.82
2023-05-06T04:17:47.400Z,86.13
2023-05-06T04:18:47.307Z,86.68
2023-05-06T04:19:47.344Z,87.29
2023-05-06T04:20:47.329Z,87.59
2023-05-06T04:21:47.311Z,87.04
2023-05-06T04:22:47.270Z,86.74
2023-05-06T04:23:47.324Z,87.04
2023-05-06T04:24:47.251Z,86.83
2023-05-06T04:25:47.275Z,86.43
2023-05-06T04:26:47.269Z,86.33
2023-05-06T04:27:47.260Z,86.53
2023-05-06T04:28:47.247Z,86.53
2023-05-06T04:29:47.249Z,86.22
2023-05-06T04:30:47.189Z,86.13
2023-05-06T04:31:47.334Z,86.74
2023-05-06T04:32:47.199Z,87.14
2023-05-06T04:33:47.231Z,87.04
2023-05-06T04:34:47.173Z,86.83
2023-05-06T04:35:47.169Z,86.63
2023-05-06T04:36:47.175Z,86.94
2023-05-06T04:37:47.182Z,87.00
2023-05-06T04:38:47.126Z,85.88
2023-05-06T04:39:47.179Z,85.37
2023-05-06T04:40:47.166Z,85.27
2023-05-06T04:41:47.107Z,84.86
2023-05-06T04:42:47.106Z,84.76
2023-05-06T04:43:47.124Z,84.72
2023-05-06T04:44:47.087Z,84.82
2023-05-06T04:45:47.085Z,84.72
2023-05-06T04:46:47.104Z,84.21
2023-05-06T04:47:47.062Z,84.01
2023-05-06T04:48:47.053Z,83.70
2023-05-06T04:49:47.203Z,83.50
2023-05-06T04:50:47.035Z,83.95
2023-05-06T04:51:47.077Z,84.35
2023-05-06T04:52:47.663Z,84.42
2023-05-06T04:53:46.993Z,84.31
2023-05-06T04:54:46.983Z,83.91
2023-05-06T04:55:46.981Z,83.40
2023-05-06T04:56:46.954Z,84.01
2023-05-06T04:57:47.154Z,84.62
2023-05-06T04:58:46.922Z,83.97
2023-05-06T04:59:46.924Z,82.95
2023-05-06T05:00:46.922Z,82.24
2023-05-06T05:01:47.016Z,82.34
2023-05-06T05:02:47.130Z,82.54
2023-05-06T05:03:46.958Z,83.26
2023-05-06T05:04:46.912Z,82.40
2023-05-06T05:05:46.950Z,82.14
2023-05-06T05:06:46.839Z,82.95
2023-05-06T05:07:46.849Z,82.65
2023-05-06T05:08:46.832Z,82.14
2023-05-06T05:09:46.834Z,82.85
2023-05-06T05:10:46.797Z,83.56
2023-05-06T05:11:46.817Z,83.67
2023-05-06T05:12:46.940Z,83.06
2023-05-06T05:13:46.771Z,82.95
2023-05-06T05:14:46.770Z,82.85
2023-05-06T05:15:46.803Z,83.56
2023-05-06T05:16:46.799Z,83.67
2023-05-06T05:17:46.782Z,83.56
2023-05-06T05:18:46.720Z,83.01
2023-05-06T05:19:46.755Z,82.10
2023-05-06T05:20:46.775Z,82.00
2023-05-06T05:21:46.693Z,81.70
2023-05-06T05:22:46.673Z,81.39
2023-05-06T05:23:46.707Z,82.14
2023-05-06T05:24:46.699Z,82.85
2023-05-06T05:25:46.696Z,82.40
2023-05-06T05:26:46.670Z,82.00
2023-05-06T05:27:46.701Z,81.59
2023-05-06T05:28:46.604Z,81.59
2023-05-06T05:29:46.632Z,81.86
2023-05-06T05:30:46.673Z,81.35
2023-05-06T05:31:46.702Z,80.84
2023-05-06T05:32:46.646Z,80.54
2023-05-06T05:33:46.584Z,80.54
2023-05-06T05:34:46.581Z,80.94
2023-05-06T05:35:46.549Z,80.74
2023-05-06T05:36:46.536Z,80.13
2023-05-06T05:37:46.593Z,80.40
2023-05-06T05:38:46.524Z,79.55
2023-05-06T05:39:46.538Z,78.09
2023-05-06T05:40:46.527Z,76.54
2023-05-06T05:41:46.502Z,75.04
2023-05-06T05:42:46.488Z,73.86
2023-05-06T05:43:46.511Z,73.02
2023-05-06T05:44:46.464Z,72.21
2023-05-06T05:45:46.748Z,71.67
2023-05-06T05:46:46.638Z,71.17
2023-05-06T05:47:46.503Z,70.53
2023-05-06T05:48:46.436Z,69.01
2023-05-06T05:49:46.432Z,69.14
2023-05-06T05:50:46.414Z,70.39
2023-05-06T05:51:46.388Z,71.30
2023-05-06T05:52:46.391Z,71.60
2023-05-06T05:53:46.417Z,70.79
2023-05-06T05:54:46.401Z,70.66
2023-05-06T05:55:46.404Z,69.82
2023-05-06T05:56:46.380Z,68.87
2023-05-06T05:57:46.398Z,68.17
2023-05-06T05:58:47.394Z,67.63
2023-05-06T05:59:46.319Z,67.23
2023-05-06T06:00:46.288Z,66.69
2023-05-06T06:01:46.321Z,66.29
2023-05-06T06:02:46.346Z,66.08
2023-05-06T06:03:46.513Z,65.99
2023-05-06T06:04:46.343Z,65.75
2023-05-06T06:05:46.275Z,65.45
2023-05-06T06:06:46.219Z,64.92
2023-05-06T06:07:46.218Z,64.11
2023-05-06T06:08:46.213Z,63.87
2023-05-06T06:09:46.212Z,63.54
2023-05-06T06:10:46.211Z,62.38
2023-05-06T06:11:46.268Z,61.21
2023-05-06T06:12:46.227Z,60.48
2023-05-06T06:13:46.188Z,60.08
2023-05-06T06:14:46.146Z,59.98
2023-05-06T06:15:46.145Z,59.78
2023-05-06T06:16:46.242Z,59.27
2023-05-06T06:17:46.149Z,59.58
2023-05-06T06:18:46.104Z,59.67
2023-05-06T06:19:46.131Z,59.47
2023-05-06T06:20:46.105Z,59.47
2023-05-06T06:21:46.077Z,59.47
2023-05-06T06:22:46.088Z,59.38
2023-05-06T06:23:46.278Z,59.60
2023-05-06T06:24:46.072Z,60.21
2023-05-06T06:25:46.061Z,60.31
2023-05-06T06:26:46.087Z,60.31
2023-05-06T06:27:46.021Z,60.11
2023-05-06T06:28:45.996Z,59.47
2023-05-06T06:29:46.109Z,58.97
2023-05-06T06:30:46.018Z,58.44
2023-05-06T06:31:46.049Z,58.34
2023-05-06T06:32:46.071Z,59.08
2023-05-06T06:33:46.011Z,59.91
2023-05-06T06:34:46.065Z,59.67
2023-05-06T06:35:45.956Z,58.84
2023-05-06T06:36:45.995Z,58.22
2023-05-06T06:37:45.976Z,57.59
2023-05-06T06:38:45.957Z,57.48
2023-05-06T06:39:45.983Z,57.51
2023-05-06T06:40:45.926Z,58.57
2023-05-06T06:41:45.957Z,59.38
2023-05-06T06:42:45.920Z,59.08
2023-05-06T06:43:45.881Z,58.97
2023-05-06T06:44:45.857Z,60.21
2023-05-06T06:45:45.933Z,61.37
2023-05-06T06:46:45.825Z,62.21
2023-05-06T06:47:45.899Z,62.91
2023-05-06T06:48:46.058Z,63.01
2023-05-06T06:49:45.801Z,62.51
2023-05-06T06:50:45.847Z,62.71
2023-05-06T06:51:45.803Z,62.91
2023-05-06T06:52:45.811Z,63.01
2023-05-06T06:53:45.782Z,63.01
2023-05-06T06:54:45.761Z,63.24
2023-05-06T06:55:45.783Z,63.24
2023-05-06T06:56:45.736Z,64.31
2023-05-06T06:57:45.812Z,65.35
2023-05-06T06:58:45.711Z,66.32
2023-05-06T06:59:45.799Z,67.26
2023-05-06T07:00:45.760Z,68.07
2023-05-06T07:01:45.775Z,68.37
2023-05-06T07:02:45.693Z,68.37
2023-05-06T07:03:45.680Z,68.37
2023-05-06T07:04:45.784Z,68.37
2023-05-06T07:05:45.650Z,68.07
2023-05-06T07:06:45.664Z,67.73
2023-05-06T07:07:45.627Z,67.83
2023-05-06T07:08:45.672Z,67.63
2023-05-06T07:09:45.592Z,67.83
2023-05-06T07:10:45.619Z,67.73
2023-05-06T07:11:45.599Z,67.40
2023-05-06T07:12:45.645Z,66.89
2023-05-06T07:13:45.628Z,66.79
2023-05-06T07:14:45.569Z,66.56
2023-05-06T07:15:45.607Z,66.25
2023-05-06T07:16:46.715Z,65.95
2023-05-06T07:17:45.559Z,65.62
2023-05-06T07:18:45.521Z,65.19
2023-05-06T07:19:45.620Z,65.09
2023-05-06T07:20:45.523Z,64.98
2023-05-06T07:21:45.490Z,64.75
2023-05-06T07:22:45.506Z,64.45
2023-05-06T07:23:45.442Z,64.02
2023-05-06T07:24:45.484Z,63.92
2023-05-06T07:25:45.838Z,63.62
2023-05-06T07:26:45.419Z,63.42
2023-05-06T07:27:45.681Z,63.18
2023-05-06T07:28:45.416Z,62.98
2023-05-06T07:29:45.385Z,62.98
2023-05-06T07:30:45.435Z,62.88
2023-05-06T07:31:45.409Z,62.98
2023-05-06T07:32:45.472Z,63.08
2023-05-06T07:33:45.385Z,63.28
2023-05-06T07:34:45.345Z,63.08
2023-05-06T07:35:45.343Z,62.88
2023-05-06T07:36:45.351Z,62.98
2023-05-06T07:37:45.425Z,62.88
2023-05-06T07:38:45.758Z,62.68
2023-05-06T07:39:45.357Z,62.68
2023-05-06T07:40:45.274Z,62.48
2023-05-06T07:41:45.297Z,62.68
2023-05-06T07:42:45.302Z,62.45
2023-05-06T07:43:45.297Z,62.35
2023-05-06T07:44:45.244Z,62.27
2023-05-06T07:45:45.231Z,62.68
2023-05-06T07:46:45.472Z,63.31
2023-05-06T07:47:45.344Z,63.51
2023-05-06T07:48:45.222Z,63.11
2023-05-06T07:49:45.260Z,62.78
2023-05-06T07:50:45.201Z,62.58
2023-05-06T07:51:45.261Z,62.68
2023-05-06T07:52:45.195Z,62.75
2023-05-06T07:53:45.204Z,62.05
2023-05-06T07:54:45.138Z,61.31
2023-05-06T07:55:45.154Z,61.11
2023-05-06T07:56:45.292Z,60.78
2023-05-06T07:57:45.142Z,60.78
2023-05-06T07:58:45.201Z,60.78
2023-05-06T07:59:45.095Z,60.98
2023-05-06T08:00:45.090Z,60.85
2023-05-06T08:01:45.081Z,60.25
2023-05-06T08:02:45.271Z,60.25
2023-05-06T08:03:45.234Z,60.25
2023-05-06T08:04:45.187Z,59.95
2023-05-06T08:05:45.060Z,60.02
2023-05-06T08:06:45.053Z,60.12
2023-05-06T08:07:45.132Z,60.12
2023-05-06T08:08:45.039Z,60.22
2023-05-06T08:09:45.023Z,60.22
2023-05-06T08:10:45.117Z,60.02
2023-05-06T08:11:45.010Z,60.22
2023-05-06T08:12:45.074Z,60.42
2023-05-06T08:13:45.289Z,60.42
2023-05-06T08:14:45.074Z,60.32
2023-05-06T08:15:44.985Z,60.32
2023-05-06T08:16:46.054Z,60.42
2023-05-06T08:17:44.936Z,60.32
2023-05-06T08:18:44.924Z,60.62
2023-05-06T08:19:44.899Z,61.35
2023-05-06T08:20:45.066Z,61.05
2023-05-06T08:21:44.884Z,61.15
2023-05-06T08:22:44.895Z,61.13
2023-05-06T08:23:44.884Z,61.02
2023-05-06T08:24:44.854Z,60.52
2023-05-06T08:25:44.858Z,60.32
2023-05-06T08:26:44.817Z,59.62
2023-05-06T08:27:44.827Z,59.52
2023-05-06T08:28:44.810Z,59.19
2023-05-06T08:29:44.799Z,59.39
2023-05-06T08:30:44.851Z,60.29
2023-05-06T08:31:45.478Z,60.19
2023-05-06T08:32:44.862Z,59.96
2023-05-06T08:33:44.751Z,59.46
2023-05-06T08:34:45.675Z,58.83
2023-05-06T08:35:44.720Z,58.13
2023-05-06T08:36:44.778Z,56.83
2023-05-06T08:37:44.746Z,57.15
2023-05-06T08:38:44.714Z,56.45
2023-05-06T08:39:44.699Z,56.73
2023-05-06T08:40:44.684Z,56.23
2023-05-06T08:41:44.740Z,56.73
2023-05-06T08:42:44.673Z,56.30
2023-05-06T08:43:44.650Z,54.80
2023-05-06T08:44:44.681Z,55.17
2023-05-06T08:45:44.712Z,54.57
2023-05-06T08:46:44.652Z,53.74
2023-05-06T08:47:44.656Z,52.84
2023-05-06T08:48:44.774Z,52.74
2023-05-06T08:49:44.597Z,52.84
2023-05-06T08:50:44.612Z,52.72
2023-05-06T08:51:44.601Z,52.62
2023-05-06T08:52:44.594Z,51.69
2023-05-06T08:53:44.589Z,51.39
2023-05-06T08:54:44.567Z,51.20
2023-05-06T08:55:44.658Z,51.50
2023-05-06T08:56:45.523Z,52.02
2023-05-06T08:57:44.519Z,52.64
2023-05-06T08:58:44.558Z,53.44
2023-05-06T08:59:44.549Z,53.77
2023-05-06T09:00:44.516Z,54.17
2023-05-06T09:01:44.508Z,54.70
2023-05-06T09:02:44.551Z,55.00
2023-05-06T09:03:44.572Z,55.52
2023-05-06T09:04:44.482Z,55.73
2023-05-06T09:05:44.468Z,55.85
2023-05-06T09:06:44.423Z,55.95
2023-05-06T09:07:44.408Z,56.05
2023-05-06T09:08:44.471Z,56.05
2023-05-06T09:09:44.443Z,56.26
2023-05-06T09:10:44.405Z,57.06
2023-05-06T09:11:44.366Z,57.06
2023-05-06T09:12:44.387Z,57.15
2023-05-06T09:13:44.369Z,56.76
2023-05-06T09:14:44.469Z,56.76
2023-05-06T09:15:44.526Z,57.06
2023-05-06T09:16:44.399Z,57.56
2023-05-06T09:17:44.391Z,57.66
2023-05-06T09:18:44.300Z,57.56
2023-05-06T09:19:44.309Z,57.76
2023-05-06T09:20:44.474Z,58.36
2023-05-06T09:21:44.303Z,57.76
2023-05-06T09:22:44.303Z,57.76
2023-05-06T09:23:44.295Z,58.09
2023-05-06T09:24:44.290Z,58.18
2023-05-06T09:25:44.303Z,58.59
2023-05-06T09:26:44.297Z,59.12
2023-05-06T09:27:44.232Z,59.62
2023-05-06T09:28:44.202Z,59.92
2023-05-06T09:29:44.248Z,59.95
2023-05-06T09:30:44.293Z,59.62
2023-05-06T09:31:44.223Z,59.32
2023-05-06T09:32:44.212Z,59.49
2023-05-06T09:33:44.159Z,59.29
2023-05-06T09:34:44.154Z,58.16
2023-05-06T09:35:44.161Z,58.06
2023-05-06T09:36:44.226Z,57.68
2023-05-06T09:37:44.111Z,58.31
2023-05-06T09:38:44.505Z,59.25
2023-05-06T09:39:44.096Z,59.55
2023-05-06T09:40:44.080Z,59.65
2023-05-06T09:41:44.105Z,59.65
2023-05-06T09:42:44.124Z,59.55
2023-05-06T09:43:44.046Z,59.34
2023-05-06T09:44:44.107Z,59.01
2023-05-06T09:45:44.121Z,58.79
2023-05-06T09:46:44.158Z,58.09
2023-05-06T09:47:44.089Z,57.96
2023-05-06T09:48:44.040Z,57.76
2023-05-06T09:49:44.004Z,57.35
2023-05-06T09:50:43.989Z,56.05
2023-05-06T09:51:44.009Z,55.45
2023-05-06T09:52:44.023Z,56.02
2023-05-06T09:53:43.994Z,54.93
2023-05-06T09:54:43.961Z,55.13
2023-05-06T09:55:44.028Z,54.93
2023-05-06T09:56:43.976Z,55.32
2023-05-06T09:57:43.965Z,55.02
2023-05-06T09:58:44.706Z,55.45
2023-05-06T09:59:43.923Z,55.78
2023-05-06T10:00:43.936Z,56.18
2023-05-06T10:01:43.918Z,56.48
2023-05-06T10:02:44.765Z,56.58
2023-05-06T10:03:43.967Z,56.58
2023-05-06T10:04:44.111Z,56.35
2023-05-06T10:05:43.894Z,55.93
2023-05-06T10:06:43.851Z,54.93
2023-05-06T10:07:43.875Z,54.20
2023-05-06T10:08:43.816Z,53.57
2023-05-06T10:09:43.816Z,53.67
2023-05-06T10:10:43.787Z,52.55
2023-05-06T10:11:43.813Z,52.44
2023-05-06T10:12:44.066Z,52.04
2023-05-06T10:13:43.848Z,52.17
2023-05-06T10:14:43.754Z,52.67
2023-05-06T10:15:43.770Z,52.69
2023-05-06T10:16:43.847Z,53.62
2023-05-06T10:17:43.773Z,54.32
2023-05-06T10:18:43.728Z,54.72
2023-05-06T10:19:43.761Z,54.50
2023-05-06T10:20:43.732Z,54.50
2023-05-06T10:21:43.685Z,54.47
2023-05-06T10:22:43.710Z,53.97
2023-05-06T10:23:43.670Z,53.57
2023-05-06T10:24:43.886Z,53.27
2023-05-06T10:25:43.675Z,53.27
2023-05-06T10:26:43.663Z,53.39
2023-05-06T10:27:43.620Z,53.69
2023-05-06T10:28:43.619Z,53.87
2023-05-06T10:29:43.704Z,53.77
2023-05-06T10:30:43.588Z,52.55
2023-05-06T10:31:43.661Z,51.94
2023-05-06T10:32:43.627Z,52.02
2023-05-06T10:33:43.718Z,51.42
2023-05-06T10:34:43.817Z,50.72
2023-05-06T10:35:43.528Z,49.90
2023-05-06T10:36:43.568Z,50.99
2023-05-06T10:37:43.545Z,51.69
2023-05-06T10:38:43.652Z,51.09
2023-05-06T10:39:43.643Z,49.79
2023-05-06T10:40:43.572Z,50.09
2023-05-06T10:41:43.586Z,50.29
2023-05-06T10:42:43.529Z,50.29
2023-05-06T10:43:43.549Z,51.09
2023-05-06T10:44:45.035Z,51.59
2023-05-06T10:45:43.469Z,52.29
2023-05-06T10:46:43.508Z,52.19
2023-05-06T10:47:43.452Z,50.79
2023-05-06T10:48:43.396Z,50.59
2023-05-06T10:49:43.435Z,50.47
2023-05-06T10:50:45.590Z,51.27
2023-05-06T10:51:43.370Z,51.97
2023-05-06T10:52:43.371Z,50.97
2023-05-06T10:53:43.433Z,50.87
2023-05-06T10:54:43.399Z,51.15
2023-05-06T10:55:43.385Z,50.54
2023-05-06T10:56:44.641Z,50.35
2023-05-06T10:57:43.335Z,50.35
2023-05-06T10:58:43.306Z,50.95
2023-05-06T10:59:43.334Z,50.04
2023-05-06T11:00:43.290Z,50.35
2023-05-06T11:01:43.282Z,50.24
2023-05-06T11:02:44.984Z,49.74
2023-05-06T11:03:43.301Z,49.22
2023-05-06T11:04:43.300Z,48.93
2023-05-06T11:05:43.235Z,49.12
2023-05-06T11:06:43.238Z,48.60
2023-05-06T11:07:43.214Z,48.40
2023-05-06T11:08:44.673Z,49.44
2023-05-06T11:09:43.210Z,50.57
2023-05-06T11:10:43.188Z,51.20
2023-05-06T11:11:43.159Z,51.62
2023-05-06T11:12:43.178Z,51.82
2023-05-06T11:13:43.188Z,52.22
2023-05-06T11:14:43.140Z,52.52
2023-05-06T11:15:43.237Z,52.32
2023-05-06T11:16:43.302Z,52.42
2023-05-06T11:17:43.145Z,52.29
2023-05-06T11:18:43.111Z,51.69
2023-05-06T11:19:43.162Z,51.09
2023-05-06T11:20:43.086Z,50.97
2023-05-06T11:21:43.094Z,50.57
2023-05-06T11:22:43.070Z,50.87
2023-05-06T11:23:43.150Z,50.39
2023-05-06T11:24:43.124Z,50.49
2023-05-06T11:25:43.212Z,50.89
2023-05-06T11:26:43.050Z,50.20
2023-05-06T11:27:43.002Z,49.77
2023-05-06T11:28:42.983Z,49.37
2023-05-06T11:29:43.077Z,48.97
2023-05-06T11:30:43.005Z,48.65
2023-05-06T11:31:43.001Z,48.65
2023-05-06T11:32:43.029Z,48.35
2023-05-06T11:33:42.946Z,48.45
2023-05-06T11:34:43.099Z,48.35
2023-05-06T11:35:42.946Z,47.72
2023-05-06T11:36:42.961Z,47.55
2023-05-06T11:37:43.088Z,47.95
2023-05-06T11:38:42.930Z,48.14
2023-05-06T11:39:42.927Z,47.95
2023-05-06T11:40:42.995Z,48.14
2023-05-06T11:41:42.869Z,48.14
2023-05-06T11:42:42.884Z,47.45
2023-05-06T11:43:42.850Z,47.55
2023-05-06T11:44:42.858Z,47.75
2023-05-06T11:45:42.880Z,47.95
2023-05-06T11:46:42.910Z,47.95
2023-05-06T11:47:43.160Z,47.55
2023-05-06T11:48:42.958Z,47.15
2023-05-06T11:49:42.832Z,47.45
2023-05-06T11:50:42.811Z,47.15
2023-05-06T11:51:42.778Z,47.13
2023-05-06T11:52:42.758Z,46.65
2023-05-06T11:53:42.800Z,46.75
2023-05-06T11:54:42.751Z,46.62
2023-05-06T11:55:42.771Z,46.45
2023-05-06T11:56:42.759Z,46.62
2023-05-06T11:57:42.722Z,46.73
2023-05-06T11:58:42.759Z,46.92
2023-05-06T11:59:42.694Z,47.33
2023-05-06T12:00:42.678Z,47.40
2023-05-06T12:01:42.794Z,47.10
2023-05-06T12:02:42.826Z,47.20
2023-05-06T12:03:42.790Z,46.70
2023-05-06T12:04:42.878Z,47.00
2023-05-06T12:05:42.635Z,46.80
2023-05-06T12:06:42.887Z,47.20
2023-05-06T12:07:43.004Z,47.30
2023-05-06T12:08:42.630Z,47.40
2023-05-06T12:09:42.631Z,47.80
2023-05-06T12:10:42.568Z,47.60
2023-05-06T12:11:44.383Z,47.08
2023-05-06T12:12:42.596Z,46.88
2023-05-06T12:13:42.664Z,46.88
2023-05-06T12:14:42.550Z,47.38
2023-05-06T12:15:42.575Z,47.26
2023-05-06T12:16:42.571Z,46.96
2023-05-06T12:17:42.513Z,46.98
2023-05-06T12:18:42.555Z,47.06
2023-05-06T12:19:42.499Z,47.26
2023-05-06T12:20:42.467Z,47.06
2023-05-06T12:21:42.469Z,46.96
2023-05-06T12:22:42.505Z,47.06
2023-05-06T12:23:42.559Z,46.66
2023-05-06T12:24:42.462Z,46.96
2023-05-06T12:25:42.465Z,47.45
2023-05-06T12:26:42.574Z,46.96
2023-05-06T12:27:42.416Z,46.76
2023-05-06T12:28:42.391Z,46.73
2023-05-06T12:29:42.382Z,46.44
2023-05-06T12:30:42.392Z,46.64
2023-05-06T12:31:42.394Z,45.72
2023-05-06T12:32:42.400Z,44.82
2023-05-06T12:33:42.988Z,45.24
2023-05-06T12:34:42.392Z,45.26
2023-05-06T12:35:42.324Z,45.56
2023-05-06T12:36:42.369Z,45.86
2023-05-06T12:37:42.381Z,46.48
2023-05-06T12:38:42.348Z,47.75
2023-05-06T12:39:42.379Z,47.66
2023-05-06T12:40:42.273Z,47.63
2023-05-06T12:41:42.285Z,47.53
2023-05-06T12:42:42.449Z,47.63
2023-05-06T12:43:42.328Z,47.53
2023-05-06T12:44:42.251Z,47.31
2023-05-06T12:45:42.323Z,47.51
2023-05-06T12:46:42.267Z,46.99
2023-05-06T12:47:42.316Z,46.49
2023-05-06T12:48:42.295Z,46.09
2023-05-06T12:49:42.263Z,45.70
2023-05-06T12:50:42.173Z,46.20
2023-05-06T12:51:42.333Z,46.42
2023-05-06T12:52:42.201Z,46.42